Time;durP1;ratioP1;P1;durP2;ratioP2;P2;SDS_P1;SDS_P2;PMS_P1;PMS_P2;Temp;Humidity;BMP_temperature;BMP_pressure;BME280_temperature;BME280_humidity;BME280_pressure;Samples;Min_cycle;Max_cycle;Signal;HPM_P1;HPM_P2
2021/09/22 00:01:18;;;;;;;30.00;24.92;;;11.60;99.90;;;;;;6188732;23;20078;-71
2021/09/22 00:03:43;;;;;;;28.35;21.33;;;11.60;99.90;;;;;;6212035;23;20016;-71
2021/09/22 00:06:09;;;;;;;23.60;20.73;;;11.60;99.90;;;;;;6188772;23;20395;-71
2021/09/22 00:08:35;;;;;;;34.70;24.13;;;11.60;99.90;;;;;;6213508;23;20016;-71
2021/09/22 00:11:01;;;;;;;45.50;29.48;;;11.60;99.90;;;;;;6185165;23;20529;-71
2021/09/22 00:13:29;;;;;;;52.33;32.55;;;11.60;99.90;;;;;;6161098;23;20020;-71
2021/09/22 00:15:55;;;;;;;46.45;25.88;;;11.50;99.90;;;;;;6161339;23;20044;-71
2021/09/22 00:18:21;;;;;;;52.65;27.70;;;11.60;99.90;;;;;;6188913;23;20496;-71
2021/09/22 00:20:47;;;;;;;33.22;25.60;;;11.50;99.90;;;;;;6188138;23;20020;-71
2021/09/22 00:23:13;;;;;;;73.00;33.53;;;11.50;99.90;;;;;;6212926;23;20016;-71
2021/09/22 00:25:39;;;;;;;55.08;26.60;;;11.50;99.90;;;;;;6188756;23;20048;-71
2021/09/22 00:28:06;;;;;;;29.45;25.83;;;11.50;99.90;;;;;;6187380;23;20016;-71
2021/09/22 00:30:32;;;;;;;41.30;29.05;;;11.40;99.90;;;;;;6213792;23;20399;-71
2021/09/22 00:33:00;;;;;;;29.38;24.48;;;11.50;99.90;;;;;;6188108;23;20020;-71
2021/09/22 00:35:25;;;;;;;31.30;26.42;;;11.40;99.90;;;;;;6211882;23;20043;-71
2021/09/22 00:37:51;;;;;;;62.25;31.27;;;11.50;99.90;;;;;;6214106;23;20296;-70
2021/09/22 00:40:17;;;;;;;43.10;30.45;;;11.40;99.90;;;;;;6213073;23;20046;-71
2021/09/22 00:42:43;;;;;;;90.45;30.00;;;11.50;99.90;;;;;;6212806;23;20024;-71
2021/09/22 00:45:12;;;;;;;48.08;32.55;;;11.50;99.90;;;;;;6188928;23;20047;-71
2021/09/22 00:47:40;;;;;;;35.97;27.95;;;11.50;99.90;;;;;;6188094;23;20463;-70
2021/09/22 00:50:07;;;;;;;75.78;33.92;;;11.60;99.90;;;;;;6187821;23;20094;-71
2021/09/22 00:52:33;;;;;;;30.65;24.30;;;11.50;99.90;;;;;;6212371;23;20066;-70
2021/09/22 00:54:59;;;;;;;31.75;25.40;;;11.60;99.90;;;;;;6212551;23;20016;-71
2021/09/22 00:57:25;;;;;;;24.95;20.35;;;11.50;99.90;;;;;;6188528;23;20020;-71
2021/09/22 00:59:52;;;;;;;20.80;18.55;;;11.50;99.90;;;;;;6188156;23;20303;-71
2021/09/22 01:02:17;;;;;;;21.73;17.83;;;11.50;99.90;;;;;;6188151;23;20023;-71
2021/09/22 01:04:44;;;;;;;22.95;20.40;;;11.50;99.90;;;;;;6162837;23;20016;-71
2021/09/22 01:07:12;;;;;;;26.98;20.95;;;11.40;99.90;;;;;;6213819;23;20082;-71
2021/09/22 01:09:38;;;;;;;35.22;24.98;;;11.40;99.90;;;;;;6210517;23;20012;-70
2021/09/22 01:12:05;;;;;;;51.67;27.92;;;11.30;99.90;;;;;;6212936;23;20047;-70
2021/09/22 01:14:34;;;;;;;43.30;26.77;;;11.30;99.90;;;;;;6187880;23;20048;-70
2021/09/22 01:17:00;;;;;;;30.15;24.05;;;11.30;99.90;;;;;;6187917;23;20019;-70
2021/09/22 01:19:27;;;;;;;29.27;23.17;;;11.20;99.90;;;;;;6187404;23;20022;-71
2021/09/22 01:21:54;;;;;;;32.88;24.25;;;11.20;99.90;;;;;;6213247;23;20016;-70
2021/09/22 01:24:21;;;;;;;29.23;23.52;;;11.20;99.90;;;;;;6187067;23;20016;-70
2021/09/22 01:26:48;;;;;;;27.25;21.52;;;11.30;99.90;;;;;;6213259;23;20019;-71
2021/09/22 01:29:15;;;;;;;54.75;25.83;;;11.30;99.90;;;;;;6162688;23;20016;-70
2021/09/22 01:31:42;;;;;;;83.85;26.98;;;11.20;99.90;;;;;;6212081;23;20349;-70
2021/09/22 01:34:10;;;;;;;26.58;20.73;;;11.20;99.90;;;;;;6211350;23;20020;-70
2021/09/22 01:36:36;;;;;;;98.78;26.45;;;11.20;99.90;;;;;;6187344;23;20105;-70
2021/09/22 01:39:04;;;;;;;30.02;23.13;;;11.20;99.90;;;;;;6164166;23;20020;-70
2021/09/22 01:41:29;;;;;;;25.95;23.15;;;11.20;99.90;;;;;;6187690;23;20028;-70
2021/09/22 01:43:55;;;;;;;43.50;28.38;;;11.20;99.90;;;;;;6187205;23;20012;-70
2021/09/22 01:46:21;;;;;;;70.07;27.58;;;11.20;99.90;;;;;;6187935;23;20447;-70
2021/09/22 01:48:47;;;;;;;44.60;24.58;;;11.20;99.90;;;;;;6188529;23;20016;-70
2021/09/22 01:51:13;;;;;;;59.25;27.23;;;11.10;99.90;;;;;;6212401;23;20066;-70
2021/09/22 01:53:39;;;;;;;48.70;29.10;;;11.00;99.90;;;;;;6211722;23;20070;-70
2021/09/22 01:56:06;;;;;;;53.33;27.00;;;11.00;99.90;;;;;;6186458;23;20388;-70
2021/09/22 01:58:35;;;;;;;40.60;26.70;;;10.90;99.90;;;;;;6187958;23;20098;-70
2021/09/22 02:01:05;;;;;;;26.25;21.30;;;10.90;99.90;;;;;;6187745;23;20020;-70
2021/09/22 02:03:34;;;;;;;27.42;22.45;;;10.90;99.90;;;;;;6211871;23;20016;-70
2021/09/22 02:06:00;;;;;;;36.33;26.17;;;10.90;99.90;;;;;;6211374;23;20016;-70
2021/09/22 02:08:26;;;;;;;33.17;27.52;;;10.90;99.90;;;;;;6214134;23;20472;-70
2021/09/22 02:10:52;;;;;;;222.88;33.30;;;10.90;99.90;;;;;;6213181;23;20024;-71
2021/09/22 02:13:17;;;;;;;27.77;23.40;;;11.00;99.90;;;;;;6213447;23;20016;-70
2021/09/22 02:15:43;;;;;;;27.70;22.08;;;11.00;99.90;;;;;;6186329;23;20027;-70
2021/09/22 02:18:09;;;;;;;349.25;47.65;;;11.00;99.90;;;;;;6188110;23;20023;-70
2021/09/22 02:20:36;;;;;;;154.63;33.97;;;11.00;99.90;;;;;;6163508;23;20452;-70
2021/09/22 02:23:05;;;;;;;311.95;50.22;;;11.00;99.90;;;;;;6188826;23;20031;-70
2021/09/22 02:25:34;;;;;;;46.63;28.93;;;11.00;99.90;;;;;;6186954;23;20020;-70
2021/09/22 02:28:00;;;;;;;30.00;25.75;;;11.00;99.90;;;;;;6187916;23;20353;-70
2021/09/22 02:30:29;;;;;;;32.08;25.38;;;11.00;99.90;;;;;;6213046;23;20032;-70
2021/09/22 02:32:54;;;;;;;49.03;32.10;;;11.00;99.90;;;;;;6188868;23;20020;-70
2021/09/22 02:35:20;;;;;;;74.18;32.90;;;11.10;99.90;;;;;;6186914;23;20016;-70
2021/09/22 02:37:46;;;;;;;54.55;33.35;;;11.10;99.90;;;;;;6213800;23;20020;-70
2021/09/22 02:40:15;;;;;;;50.08;34.60;;;11.10;99.90;;;;;;6188593;23;20422;-70
2021/09/22 02:42:42;;;;;;;41.40;30.10;;;11.00;99.90;;;;;;6188749;23;20334;-70
2021/09/22 02:45:09;;;;;;;62.28;32.45;;;11.00;99.90;;;;;;6213456;23;20091;-70
2021/09/22 02:47:34;;;;;;;57.63;30.58;;;11.00;99.90;;;;;;6188172;23;20016;-71
2021/09/22 02:50:00;;;;;;;77.90;32.10;;;11.00;99.90;;;;;;6188606;23;20043;-71
2021/09/22 02:52:26;;;;;;;36.85;28.52;;;11.00;99.90;;;;;;6214212;23;20020;-70
2021/09/22 02:54:52;;;;;;;56.80;35.30;;;11.10;99.90;;;;;;6186748;23;20078;-70
2021/09/22 02:57:18;;;;;;;34.10;25.50;;;11.20;99.90;;;;;;6188574;23;20016;-70
2021/09/22 02:59:43;;;;;;;74.20;33.65;;;11.20;99.90;;;;;;6210926;23;20059;-70
2021/09/22 03:02:09;;;;;;;245.05;39.22;;;11.30;99.90;;;;;;6188005;23;20074;-70
2021/09/22 03:04:35;;;;;;;39.65;31.20;;;11.30;99.90;;;;;;6213624;23;20016;-70
2021/09/22 03:07:04;;;;;;;193.45;44.83;;;11.40;99.90;;;;;;6188412;23;20059;-70
2021/09/22 03:09:29;;;;;;;52.83;35.80;;;11.40;99.90;;;;;;6213620;23;20353;-70
2021/09/22 03:11:55;;;;;;;37.90;31.08;;;11.40;99.90;;;;;;6188745;23;20020;-70
2021/09/22 03:14:21;;;;;;;38.08;29.92;;;11.40;99.90;;;;;;6188627;23;20031;-70
2021/09/22 03:16:47;;;;;;;54.35;33.85;;;11.40;99.90;;;;;;6188084;23;20787;-70
2021/09/22 03:19:13;;;;;;;36.50;29.50;;;11.50;99.90;;;;;;6212907;23;20016;-70
2021/09/22 03:21:39;;;;;;;83.82;33.05;;;11.40;99.90;;;;;;6187779;23;20546;-70
2021/09/22 03:24:05;;;;;;;71.72;34.42;;;11.40;99.90;;;;;;6188453;23;20016;-70
2021/09/22 03:26:30;;;;;;;58.00;31.88;;;11.30;99.90;;;;;;6187534;23;20381;-70
2021/09/22 03:28:56;;;;;;;54.45;36.25;;;11.20;99.90;;;;;;6213012;23;20588;-70
2021/09/22 03:31:22;;;;;;;42.70;33.47;;;11.30;99.90;;;;;;6187958;23;20126;-70
2021/09/22 03:33:48;;;;;;;184.02;40.85;;;11.20;99.90;;;;;;6213709;23;20463;-70
2021/09/22 03:36:13;;;;;;;233.25;41.30;;;11.20;99.90;;;;;;6162873;23;20016;-70
2021/09/22 03:38:39;;;;;;;88.15;37.20;;;11.30;99.90;;;;;;6213729;23;20012;-70
2021/09/22 03:41:05;;;;;;;105.25;33.15;;;11.30;99.90;;;;;;6188642;23;20012;-70
2021/09/22 03:43:40;;;;;;;111.22;31.00;;;11.30;99.90;;;;;;6189022;23;20363;-70
2021/09/22 03:46:06;;;;;;;102.78;31.90;;;11.30;99.90;;;;;;6190508;23;20667;-70
2021/09/22 03:48:32;;;;;;;60.00;27.15;;;11.20;99.90;;;;;;6189051;23;20099;-70
2021/09/22 03:50:58;;;;;;;60.03;29.23;;;11.10;99.90;;;;;;6188608;23;20121;-70
2021/09/22 03:53:24;;;;;;;100.05;30.40;;;11.10;99.90;;;;;;6188680;23;20012;-70
2021/09/22 03:55:53;;;;;;;88.65;27.65;;;11.00;99.90;;;;;;6187710;23;20016;-70
2021/09/22 03:58:19;;;;;;;92.00;26.50;;;11.00;99.90;;;;;;6213521;23;20020;-70
2021/09/22 04:00:45;;;;;;;57.78;26.90;;;11.00;99.90;;;;;;6187853;23;20097;-70
2021/09/22 04:03:10;;;;;;;83.57;26.58;;;10.90;99.90;;;;;;6213444;23;20095;-70
2021/09/22 04:05:36;;;;;;;48.28;25.20;;;10.90;99.90;;;;;;6188007;23;20542;-70
2021/09/22 04:08:05;;;;;;;36.83;25.77;;;10.90;99.90;;;;;;6188078;23;20100;-70
2021/09/22 04:10:31;;;;;;;80.93;28.65;;;10.90;99.90;;;;;;6213754;23;20051;-70
2021/09/22 04:12:56;;;;;;;43.22;23.70;;;10.90;99.90;;;;;;6188701;23;20017;-70
2021/09/22 04:15:22;;;;;;;58.90;26.45;;;10.90;99.90;;;;;;6213765;23;20038;-70
2021/09/22 04:17:48;;;;;;;59.15;30.15;;;10.90;99.90;;;;;;6164328;23;20475;-70
2021/09/22 04:20:14;;;;;;;182.45;40.40;;;10.90;99.90;;;;;;6213800;23;20078;-70
2021/09/22 04:22:40;;;;;;;96.22;31.63;;;10.90;99.90;;;;;;6189107;23;20094;-69
2021/09/22 04:25:09;;;;;;;241.07;44.58;;;10.90;99.90;;;;;;6188167;23;20099;-70
2021/09/22 04:27:36;;;;;;;101.40;30.67;;;10.90;99.90;;;;;;6189456;23;20027;-70
2021/09/22 04:30:07;;;;;;;324.90;49.95;;;11.00;99.90;;;;;;6163564;23;20020;-70
2021/09/22 04:32:33;;;;;;;349.73;51.63;;;11.00;99.90;;;;;;6164655;23;20471;-70
2021/09/22 04:34:59;;;;;;;244.00;49.22;;;11.00;99.90;;;;;;6213420;23;20078;-70
2021/09/22 04:37:28;;;;;;;217.68;43.25;;;11.00;99.90;;;;;;6188277;23;20024;-70
2021/09/22 04:39:54;;;;;;;65.65;32.08;;;10.90;99.90;;;;;;6212991;23;20012;-70
2021/09/22 04:42:19;;;;;;;86.22;32.78;;;10.90;99.90;;;;;;6214473;23;20038;-70
2021/09/22 04:44:45;;;;;;;66.18;30.98;;;10.90;99.90;;;;;;6190607;23;20394;-70
2021/09/22 04:47:11;;;;;;;92.57;32.25;;;10.90;99.90;;;;;;6190167;23;20028;-70
2021/09/22 04:49:37;;;;;;;48.97;27.05;;;10.90;99.90;;;;;;6215569;23;20519;-69
2021/09/22 04:52:03;;;;;;;82.97;33.33;;;10.90;99.90;;;;;;6215041;23;20346;-70
2021/09/22 04:54:29;;;;;;;199.43;39.70;;;10.90;99.90;;;;;;6214800;23;20008;-70
2021/09/22 04:56:55;;;;;;;167.18;39.20;;;10.80;99.90;;;;;;6188476;23;20106;-70
2021/09/22 04:59:22;;;;;;;242.60;45.10;;;10.80;99.90;;;;;;6213855;23;20460;-70
2021/09/22 05:01:48;;;;;;;61.30;32.28;;;10.80;99.90;;;;;;6188337;23;20099;-70
2021/09/22 05:04:14;;;;;;;39.78;28.60;;;10.80;99.90;;;;;;6240214;22;20056;-70
2021/09/22 05:06:39;;;;;;;47.90;31.70;;;10.80;99.90;;;;;;6214556;23;20673;-70
2021/09/22 05:09:05;;;;;;;135.98;39.13;;;10.80;99.90;;;;;;6213212;23;20062;-70
2021/09/22 05:11:34;;;;;;;92.88;34.70;;;10.80;99.90;;;;;;6189584;23;20030;-70
2021/09/22 05:13:59;;;;;;;44.03;31.27;;;10.80;99.90;;;;;;6214184;23;20448;-70
2021/09/22 05:16:25;;;;;;;166.43;44.78;;;10.80;99.90;;;;;;6163289;23;20016;-70
2021/09/22 05:18:51;;;;;;;154.13;45.45;;;10.80;99.90;;;;;;6210387;23;20874;-71
2021/09/22 05:21:17;;;;;;;140.43;41.72;;;10.90;99.90;;;;;;6188036;23;20027;-70
2021/09/22 05:23:43;;;;;;;246.23;51.72;;;10.90;99.90;;;;;;6187737;23;20024;-70
2021/09/22 05:26:08;;;;;;;182.82;47.65;;;10.90;99.90;;;;;;6187947;23;20526;-70
2021/09/22 05:28:34;;;;;;;391.25;61.58;;;10.90;99.90;;;;;;6214503;23;20054;-71
2021/09/22 05:31:00;;;;;;;75.60;39.30;;;10.90;99.90;;;;;;6185923;23;20103;-71
2021/09/22 05:33:26;;;;;;;552.35;77.22;;;11.00;99.90;;;;;;6160306;23;20090;-70
2021/09/22 05:35:52;;;;;;;79.05;42.28;;;11.00;99.90;;;;;;6210172;23;20054;-71
2021/09/22 05:38:18;;;;;;;121.20;45.13;;;11.00;99.90;;;;;;6162621;23;20107;-71
2021/09/22 05:40:44;;;;;;;104.28;45.08;;;11.00;99.90;;;;;;6211796;23;20039;-70
2021/09/22 05:43:10;;;;;;;343.35;62.22;;;11.00;99.90;;;;;;6186626;23;20464;-71
2021/09/22 05:45:36;;;;;;;59.70;36.83;;;11.00;99.90;;;;;;6187057;23;20051;-70
2021/09/22 05:48:05;;;;;;;454.45;71.15;;;11.10;99.90;;;;;;6186976;23;20026;-70
2021/09/22 05:50:34;;;;;;;405.17;64.63;;;11.10;99.90;;;;;;6210317;23;20444;-70
2021/09/22 05:53:00;;;;;;;70.13;40.70;;;11.10;99.90;;;;;;6178684;23;20028;-73
2021/09/22 05:55:26;;;;;;;111.88;48.22;;;11.10;99.90;;;;;;6211168;23;20251;-71
2021/09/22 05:57:52;;;;;;;118.03;43.30;;;11.10;99.90;;;;;;6205309;23;20028;-70
2021/09/22 06:00:18;;;;;;;80.75;42.22;;;11.10;99.90;;;;;;6182335;23;20044;-70
2021/09/22 06:02:44;;;;;;;156.07;50.85;;;11.10;99.90;;;;;;6184651;23;20110;-70
2021/09/22 06:05:10;;;;;;;97.43;40.33;;;11.20;99.90;;;;;;6182473;23;20025;-70
2021/09/22 06:07:35;;;;;;;107.68;45.13;;;11.20;99.90;;;;;;6205858;23;20013;-70
2021/09/22 06:10:05;;;;;;;127.65;47.65;;;11.30;99.90;;;;;;6179456;23;20021;-70
2021/09/22 06:12:34;;;;;;;425.57;70.23;;;11.30;99.90;;;;;;6182496;23;20446;-70
2021/09/22 06:15:00;;;;;;;162.52;48.58;;;11.30;99.90;;;;;;6206866;23;20024;-71
2021/09/22 06:17:25;;;;;;;114.60;46.63;;;11.40;99.90;;;;;;6208113;23;20095;-70
2021/09/22 06:19:51;;;;;;;193.15;60.50;;;11.40;99.90;;;;;;6183343;23;20485;-70
2021/09/22 06:22:23;;;;;;;173.63;54.45;;;11.50;99.90;;;;;;6207017;23;20056;-71
2021/09/22 06:24:50;;;;;;;149.85;52.97;;;11.50;99.90;;;;;;6185968;23;20016;-70
2021/09/22 06:27:16;;;;;;;109.00;47.58;;;11.60;99.90;;;;;;6208649;23;20028;-70
2021/09/22 06:29:41;;;;;;;151.30;58.90;;;11.70;99.90;;;;;;6207867;23;20021;-70
2021/09/22 06:32:07;;;;;;;486.70;77.90;;;11.70;99.90;;;;;;6182651;23;20019;-71
2021/09/22 06:34:33;;;;;;;358.42;74.03;;;11.80;99.90;;;;;;6184252;23;20039;-70
2021/09/22 06:36:59;;;;;;;174.27;58.78;;;11.80;99.90;;;;;;6183441;23;20415;-70
2021/09/22 06:39:25;;;;;;;336.67;71.55;;;11.80;99.90;;;;;;6158460;23;20023;-70
2021/09/22 06:41:50;;;;;;;172.20;62.97;;;11.90;99.90;;;;;;6208921;23;20023;-70
2021/09/22 06:44:16;;;;;;;453.08;81.28;;;12.00;99.90;;;;;;6209317;23;20016;-70
2021/09/22 06:46:42;;;;;;;256.45;67.60;;;12.00;99.90;;;;;;6183660;23;20079;-70
2021/09/22 06:49:08;;;;;;;110.57;51.13;;;12.00;99.90;;;;;;6208302;23;20082;-70
2021/09/22 06:51:33;;;;;;;189.02;63.10;;;12.10;99.90;;;;;;6181962;23;20024;-70
2021/09/22 06:53:59;;;;;;;447.23;80.50;;;12.20;99.90;;;;;;6182893;23;20030;-70
2021/09/22 06:56:25;;;;;;;401.20;79.22;;;12.20;99.90;;;;;;6157375;23;20013;-70
2021/09/22 06:58:52;;;;;;;394.90;73.38;;;12.20;99.90;;;;;;6183179;23;20624;-70
2021/09/22 07:01:18;;;;;;;514.40;80.22;;;12.30;99.90;;;;;;6207297;23;20016;-70
2021/09/22 07:03:44;;;;;;;187.70;62.33;;;12.30;99.90;;;;;;6183154;23;20016;-70
2021/09/22 07:06:11;;;;;;;295.90;63.20;;;12.40;99.90;;;;;;6182034;23;20020;-70
2021/09/22 07:08:38;;;;;;;607.15;85.10;;;12.40;99.90;;;;;;6181461;23;20066;-70
2021/09/22 07:11:04;;;;;;;452.52;73.13;;;12.40;99.90;;;;;;6180424;23;20607;-70
2021/09/22 07:13:32;;;;;;;322.20;67.28;;;12.50;99.90;;;;;;6206395;23;20016;-70
2021/09/22 07:15:58;;;;;;;221.88;64.30;;;12.50;99.90;;;;;;6180835;23;20017;-70
2021/09/22 07:18:23;;;;;;;190.88;65.50;;;12.50;99.90;;;;;;6157009;23;20349;-69
2021/09/22 07:20:49;;;;;;;171.15;63.50;;;12.50;99.90;;;;;;6181831;23;20017;-70
2021/09/22 07:23:18;;;;;;;287.70;70.43;;;12.60;99.90;;;;;;6181399;23;20021;-69
2021/09/22 07:25:45;;;;;;;160.80;61.33;;;12.60;99.90;;;;;;6183543;23;20471;-69
2021/09/22 07:28:10;;;;;;;435.27;82.70;;;12.70;99.90;;;;;;6206029;23;20078;-69
2021/09/22 07:30:36;;;;;;;555.53;84.13;;;12.70;99.90;;;;;;6180527;23;20380;-70
2021/09/22 07:33:06;;;;;;;178.00;65.13;;;12.80;99.90;;;;;;6180016;23;20073;-69
2021/09/22 07:35:35;;;;;;;196.00;66.28;;;12.80;99.90;;;;;;6179683;23;20024;-69
2021/09/22 07:38:01;;;;;;;229.23;68.10;;;12.90;99.90;;;;;;6156164;23;20321;-69
2021/09/22 07:40:28;;;;;;;325.48;75.57;;;12.90;99.90;;;;;;6180283;23;20498;-70
2021/09/22 07:42:56;;;;;;;405.17;80.72;;;13.00;99.90;;;;;;6181161;23;20020;-69
2021/09/22 07:45:22;;;;;;;235.40;68.45;;;13.00;99.90;;;;;;6179793;23;20649;-70
2021/09/22 07:47:47;;;;;;;144.75;63.20;;;13.10;99.90;;;;;;6206070;23;20095;-70
2021/09/22 07:50:13;;;;;;;217.32;70.05;;;13.00;99.90;;;;;;6179279;23;20023;-71
2021/09/22 07:52:40;;;;;;;268.45;77.95;;;13.10;99.90;;;;;;6153108;23;20079;-70
2021/09/22 07:55:08;;;;;;;168.50;71.15;;;13.20;99.90;;;;;;6205005;23;20096;-71
2021/09/22 07:57:34;;;;;;;252.10;80.53;;;13.30;99.90;;;;;;6177895;23;20017;-72
2021/09/22 08:00:00;;;;;;;217.77;80.93;;;13.30;99.90;;;;;;6181418;23;20021;-71
2021/09/22 08:02:26;;;;;;;204.63;79.40;;;13.40;99.90;;;;;;6180817;23;20544;-71
2021/09/22 08:04:52;;;;;;;219.38;82.80;;;13.50;99.90;;;;;;6181212;23;20028;-72
2021/09/22 08:07:18;;;;;;;166.48;76.10;;;13.60;99.90;;;;;;6180059;23;20095;-72
2021/09/22 08:09:45;;;;;;;144.85;74.88;;;13.70;99.90;;;;;;6205241;23;20456;-71
2021/09/22 08:12:11;;;;;;;135.27;72.78;;;13.80;99.90;;;;;;6180803;23;20023;-72
2021/09/22 08:14:37;;;;;;;130.07;71.07;;;13.90;99.90;;;;;;6206074;23;20028;-72
2021/09/22 08:17:05;;;;;;;141.80;73.47;;;14.10;99.90;;;;;;6206543;23;20024;-71
2021/09/22 08:19:33;;;;;;;122.68;71.43;;;14.20;99.90;;;;;;6182803;23;20051;-72
2021/09/22 08:21:58;;;;;;;110.25;67.57;;;14.40;99.90;;;;;;6209014;23;20468;-72
2021/09/22 08:24:25;;;;;;;107.47;66.38;;;14.70;99.90;;;;;;6183199;23;20020;-72
2021/09/22 08:26:53;;;;;;;97.80;64.40;;;14.90;99.90;;;;;;6183773;23;20081;-72
2021/09/22 08:29:20;;;;;;;96.03;63.38;;;15.20;99.90;;;;;;6183939;23;20021;-72
2021/09/22 08:31:46;;;;;;;97.30;63.95;;;15.30;99.90;;;;;;6184647;23;20365;-72
2021/09/22 08:34:11;;;;;;;87.00;59.00;;;15.40;99.90;;;;;;6183415;23;20024;-72
2021/09/22 08:36:39;;;;;;;90.95;63.17;;;15.50;99.90;;;;;;6158038;23;20021;-73
2021/09/22 08:39:05;;;;;;;84.22;60.63;;;15.60;99.90;;;;;;6158744;23;20048;-72
2021/09/22 08:41:34;;;;;;;85.00;60.25;;;15.60;99.90;;;;;;6182009;23;20925;-72
2021/09/22 08:44:03;;;;;;;86.00;62.20;;;15.70;99.90;;;;;;6210043;23;20028;-72
2021/09/22 08:46:34;;;;;;;80.55;61.08;;;15.70;99.90;;;;;;6184441;23;20067;-72
2021/09/22 08:49:05;;;;;;;82.18;59.17;;;15.90;99.90;;;;;;6183646;23;20023;-72
2021/09/22 08:51:34;;;;;;;79.97;61.30;;;16.00;99.90;;;;;;6183465;23;20050;-72
2021/09/22 08:54:01;;;;;;;72.25;57.35;;;16.20;99.90;;;;;;6207872;23;20509;-72
2021/09/22 08:56:27;;;;;;;72.63;56.63;;;16.30;99.90;;;;;;6182953;23;20020;-72
2021/09/22 08:58:54;;;;;;;75.07;59.38;;;16.50;99.90;;;;;;6207940;23;20019;-72
2021/09/22 09:01:22;;;;;;;67.78;54.33;;;16.70;99.90;;;;;;6207422;23;20469;-72
2021/09/22 09:03:49;;;;;;;67.40;54.88;;;16.80;99.90;;;;;;6182511;23;20103;-72
2021/09/22 09:06:20;;;;;;;67.50;56.17;;;16.90;99.90;;;;;;6208502;23;20020;-72
2021/09/22 09:08:47;;;;;;;63.25;52.38;;;17.00;99.90;;;;;;6182891;23;20055;-72
2021/09/22 09:11:13;;;;;;;60.63;50.63;;;17.10;99.90;;;;;;6208125;23;20075;-72
2021/09/22 09:13:51;;;;;;;55.97;45.95;;;17.30;99.90;;;;;;6208447;23;20029;-72
2021/09/22 09:16:18;;;;;;;55.78;47.10;;;17.40;99.90;;;;;;6208944;23;20016;-72
2021/09/22 09:18:53;;;;;;;54.50;45.50;;;17.50;99.90;;;;;;6159165;23;20094;-72
2021/09/22 09:21:21;;;;;;;47.22;41.58;;;17.60;99.90;;;;;;6183033;23;20104;-72
2021/09/22 09:23:52;;;;;;;52.55;44.50;;;17.80;99.90;;;;;;6158244;23;20024;-71
2021/09/22 09:26:30;;;;;;;47.67;41.03;;;17.80;99.90;;;;;;6182394;23;20428;-72
2021/09/22 09:28:58;;;;;;;49.92;41.40;;;17.90;99.90;;;;;;6209106;23;20048;-72
2021/09/22 09:31:33;;;;;;;48.30;40.72;;;18.00;99.90;;;;;;6182571;23;20024;-72
2021/09/22 09:34:01;;;;;;;47.83;39.90;;;18.00;99.90;;;;;;6183790;23;20017;-72
2021/09/22 09:36:43;;;;;;;47.35;38.58;;;18.20;99.90;;;;;;6156368;23;20025;-72
2021/09/22 09:39:12;;;;;;;47.13;39.20;;;18.20;99.90;;;;;;6207272;23;20013;-72
2021/09/22 09:41:49;;;;;;;44.15;37.58;;;18.20;99.90;;;;;;6181818;23;20442;-72
2021/09/22 09:44:18;;;;;;;41.08;36.75;;;18.20;99.90;;;;;;6208337;23;20016;-72
2021/09/22 09:46:47;;;;;;;41.88;35.70;;;18.30;99.90;;;;;;6209436;23;20345;-72
2021/09/22 09:49:18;;;;;;;44.97;37.10;;;18.30;99.90;;;;;;6208205;23;20461;-72
2021/09/22 09:51:55;;;;;;;43.45;35.92;;;18.40;99.90;;;;;;6208741;23;20028;-72
2021/09/22 09:54:32;;;;;;;38.50;33.60;;;18.50;99.90;;;;;;6208730;23;20394;-72
2021/09/22 09:57:11;;;;;;;38.28;31.75;;;18.50;99.90;;;;;;6184337;23;20027;-72
2021/09/22 09:59:45;;;;;;;43.33;35.67;;;18.60;99.90;;;;;;6153830;23;20017;-72
2021/09/22 10:02:24;;;;;;;42.90;34.83;;;18.80;99.90;;;;;;6178720;23;20450;-72
2021/09/22 10:04:52;;;;;;;34.55;29.45;;;18.80;99.90;;;;;;6177820;23;20020;-72
2021/09/22 10:07:18;;;;;;;36.78;30.80;;;18.80;99.90;;;;;;6176054;23;20013;-72
2021/09/22 10:09:45;;;;;;;32.53;29.02;;;18.80;99.90;;;;;;6127573;23;20092;-73
2021/09/22 10:12:13;;;;;;;34.17;27.30;;;18.80;99.90;;;;;;6148992;23;20017;-72
2021/09/22 10:14:40;;;;;;;32.15;27.00;;;18.80;99.90;;;;;;6149257;23;20044;-72
2021/09/22 10:17:06;;;;;;;31.05;26.98;;;18.80;99.90;;;;;;6175346;23;20052;-72
2021/09/22 10:19:36;;;;;;;27.23;23.58;;;19.00;99.90;;;;;;6151740;23;20032;-72
2021/09/22 10:22:02;;;;;;;;;;;19.10;99.90;;;;;;6179288;23;20079;-72
2021/09/22 10:24:28;;;;;;;30.55;24.38;;;19.30;99.90;;;;;;6178024;23;19924;-72
2021/09/22 10:26:54;;;;;;;31.02;24.70;;;19.30;99.90;;;;;;6152713;23;20464;-72
2021/09/22 10:29:21;;;;;;;26.35;19.85;;;19.30;99.90;;;;;;6177783;23;20024;-72
2021/09/22 10:31:47;;;;;;;26.08;20.45;;;19.20;99.90;;;;;;6152089;23;20025;-72
2021/09/22 10:34:30;;;;;;;23.35;18.95;;;19.10;99.90;;;;;;6176118;23;20126;-72
2021/09/22 10:36:58;;;;;;;20.17;17.15;;;19.00;99.90;;;;;;6151437;23;20048;-72
2021/09/22 10:39:36;;;;;;;21.45;17.55;;;18.90;99.90;;;;;;6176039;23;20017;-72
2021/09/22 10:42:31;;;;;;;21.17;16.23;;;18.90;99.90;;;;;;6151363;23;20035;-73
2021/09/22 10:45:18;;;;;;;20.85;17.95;;;19.00;99.90;;;;;;6153462;23;20355;-72
2021/09/22 10:47:44;;;;;;;19.00;15.82;;;19.00;99.90;;;;;;6153927;23;20273;-73
2021/09/22 10:50:33;;;;;;;19.25;16.00;;;19.10;99.90;;;;;;6151047;23;20021;-73
2021/09/22 10:52:58;;;;;;;23.13;16.40;;;19.20;99.90;;;;;;6178236;23;20148;-73
2021/09/22 10:55:24;;;;;;;19.73;15.38;;;19.30;99.90;;;;;;6177369;23;20084;-73
2021/09/22 10:57:50;;;;;;;20.40;16.08;;;19.60;99.90;;;;;;6164574;23;20015;-73
2021/09/22 11:00:20;;;;;;;21.88;17.80;;;19.80;99.90;;;;;;6187042;23;20016;-73
2021/09/22 11:02:48;;;;;;;21.73;15.95;;;20.00;99.90;;;;;;6186126;23;20023;-73
2021/09/22 11:05:26;;;;;;;17.10;15.10;;;20.20;99.90;;;;;;6186551;23;20016;-73
2021/09/22 11:08:02;;;;;;;19.83;15.43;;;20.40;99.90;;;;;;6185399;23;20056;-73
2021/09/22 11:10:45;;;;;;;20.02;16.52;;;20.60;99.90;;;;;;6213338;23;20023;-73
2021/09/22 11:13:23;;;;;;;18.42;14.90;;;20.80;99.20;;;;;;6213541;23;20020;-73
2021/09/22 11:15:50;;;;;;;21.08;15.45;;;20.90;98.20;;;;;;6213496;23;20026;-73
2021/09/22 11:18:18;;;;;;;18.77;14.43;;;21.00;98.50;;;;;;6188515;23;20067;-73
2021/09/22 11:20:58;;;;;;;18.50;15.50;;;21.00;98.30;;;;;;6188726;23;20047;-73
2021/09/22 11:23:26;;;;;;;16.45;14.40;;;21.00;97.80;;;;;;6213499;23;20091;-74
2021/09/22 11:25:52;;;;;;;19.80;15.02;;;21.00;98.00;;;;;;6213570;23;20094;-73
2021/09/22 11:28:18;;;;;;;18.77;14.75;;;20.90;97.10;;;;;;6188630;23;20384;-74
2021/09/22 11:30:44;;;;;;;16.17;11.68;;;20.90;96.80;;;;;;6188473;23;20020;-74
2021/09/22 11:33:25;;;;;;;17.98;12.27;;;21.00;96.90;;;;;;6188626;23;20012;-73
2021/09/22 11:35:52;;;;;;;20.58;11.80;;;21.00;97.30;;;;;;6188195;23;20330;-74
2021/09/22 11:38:18;;;;;;;14.05;11.35;;;21.00;96.10;;;;;;6212256;23;20016;-73
2021/09/22 11:40:45;;;;;;;14.00;11.00;;;20.90;94.90;;;;;;6213105;23;20016;-73
2021/09/22 11:43:15;;;;;;;14.50;11.27;;;20.60;95.20;;;;;;6188425;23;20317;-74
2021/09/22 11:45:47;;;;;;;15.07;10.82;;;20.40;95.40;;;;;;6213613;23;20078;-73
2021/09/22 11:48:37;;;;;;;14.15;9.95;;;20.40;96.40;;;;;;6213550;23;20048;-74
2021/09/22 11:51:08;;;;;;;16.90;11.98;;;20.60;96.90;;;;;;6213211;23;20024;-73
2021/09/22 11:53:39;;;;;;;15.88;11.60;;;20.80;95.20;;;;;;6190907;23;20016;-73
2021/09/22 11:56:06;;;;;;;18.30;10.85;;;20.90;95.00;;;;;;6190127;23;20016;-74
2021/09/22 11:58:36;;;;;;;19.25;11.30;;;20.70;94.80;;;;;;6215906;23;20020;-77
2021/09/22 12:01:07;;;;;;;14.95;11.30;;;20.60;94.90;;;;;;6190764;23;20043;-72
2021/09/22 12:03:36;;;;;;;15.25;11.65;;;20.50;94.90;;;;;;6215663;23;20020;-71
2021/09/22 12:06:08;;;;;;;13.40;10.98;;;20.50;95.90;;;;;;6190205;23;20024;-72
2021/09/22 12:08:36;;;;;;;14.70;10.23;;;20.30;96.70;;;;;;6189734;23;20091;-73
2021/09/22 12:11:03;;;;;;;14.50;10.38;;;20.20;96.90;;;;;;6214428;23;20461;-73
2021/09/22 12:13:29;;;;;;;14.50;9.98;;;20.20;97.50;;;;;;6214982;23;20654;-73
2021/09/22 12:15:57;;;;;;;17.45;12.32;;;20.40;98.10;;;;;;6165485;23;20086;-73
2021/09/22 12:18:25;;;;;;;14.13;10.10;;;20.60;97.10;;;;;;6189760;23;20395;-72
2021/09/22 12:20:53;;;;;;;17.30;10.18;;;20.80;96.30;;;;;;6164791;23;20020;-73
2021/09/22 12:23:30;;;;;;;14.40;9.18;;;21.00;95.20;;;;;;6189568;23;20023;-73
2021/09/22 12:26:14;;;;;;;13.98;7.25;;;21.20;94.30;;;;;;6215402;23;20028;-73